createdAt,value
2023-04-21T00:01:44.650Z,85.11
2023-04-21T00:04:15.148Z,85.26
2023-04-21T00:06:45.315Z,84.76
2023-04-21T00:09:13.169Z,85.02
2023-04-21T00:11:41.206Z,84.89
2023-04-21T00:14:09.028Z,84.87
2023-04-21T00:16:36.900Z,85.48
2023-04-21T00:19:06.928Z,85.10
2023-04-21T00:21:34.897Z,85.03
2023-04-21T00:24:04.287Z,85.50
2023-04-21T00:26:32.035Z,84.66
2023-04-21T00:29:00.306Z,85.50
2023-04-21T00:31:28.245Z,85.64
2023-04-21T00:33:56.500Z,84.84
2023-04-21T00:36:25.009Z,85.59
2023-04-21T00:38:52.812Z,85.14
2023-04-21T00:41:21.900Z,85.31
2023-04-21T00:44:01.850Z,85.66
2023-04-21T00:46:29.781Z,85.90
2023-04-21T00:48:57.795Z,85.97
2023-04-21T00:51:25.789Z,85.83
2023-04-21T00:53:53.689Z,86.33
2023-04-21T00:56:23.100Z,85.57
2023-04-21T00:58:51.164Z,86.49
2023-04-21T01:01:19.192Z,85.91
2023-04-21T01:03:47.727Z,85.83
2023-04-21T01:06:15.682Z,85.58
2023-04-21T01:08:43.589Z,86.51
2023-04-21T01:11:12.220Z,86.34
2023-04-21T01:13:42.041Z,85.95
2023-04-21T01:16:09.940Z,85.95
2023-04-21T01:18:37.824Z,86.48
2023-04-21T01:21:07.543Z,86.32
2023-04-21T01:23:36.680Z,86.40
2023-04-21T01:26:04.906Z,86.45
2023-04-21T01:28:32.904Z,86.24
2023-04-21T01:31:00.899Z,86.74
2023-04-21T01:33:29.003Z,86.81
2023-04-21T01:35:57.224Z,86.84
2023-04-21T01:38:25.421Z,86.97
2023-04-21T01:40:55.860Z,86.74
2023-04-21T01:43:25.358Z,86.55
2023-04-21T01:45:53.982Z,86.84
2023-04-21T01:48:21.858Z,86.52
2023-04-21T01:50:49.839Z,87.13
2023-04-21T01:53:17.652Z,86.57
2023-04-21T01:55:45.420Z,86.73
2023-04-21T01:58:14.780Z,86.86
2023-04-21T02:00:42.522Z,86.41
2023-04-21T02:03:10.447Z,86.57
2023-04-21T02:05:38.441Z,87.31
2023-04-21T02:08:07.577Z,86.64
2023-04-21T02:10:35.295Z,87.30
2023-04-21T02:13:03.149Z,87.11
2023-04-21T02:15:32.306Z,86.65
2023-04-21T02:18:00.473Z,87.22
2023-04-21T02:20:28.383Z,86.80
2023-04-21T02:22:56.167Z,86.89
2023-04-21T02:25:24.193Z,87.01
2023-04-21T02:27:51.942Z,87.11
2023-04-21T02:30:20.597Z,86.89
2023-04-21T02:32:49.924Z,86.85
2023-04-21T02:35:17.838Z,86.59
2023-04-21T02:37:45.628Z,87.17
2023-04-21T02:40:14.017Z,87.24
2023-04-21T02:42:41.833Z,86.95
2023-04-21T02:45:16.277Z,87.45
2023-04-21T02:47:44.028Z,86.62
2023-04-21T02:50:14.637Z,87.21
2023-04-21T02:52:42.363Z,86.73
2023-04-21T02:55:10.377Z,87.78
2023-04-21T02:57:38.112Z,87.55
2023-04-21T03:00:08.081Z,86.96
2023-04-21T03:02:36.093Z,86.87
2023-04-21T03:05:04.406Z,87.79
2023-04-21T03:07:33.502Z,87.14
2023-04-21T03:10:01.311Z,86.86
2023-04-21T03:12:29.093Z,86.98
2023-04-21T03:14:56.899Z,87.49
2023-04-21T03:17:24.690Z,87.32
2023-04-21T03:19:52.479Z,87.57
2023-04-21T03:22:20.309Z,87.12
2023-04-21T03:24:49.466Z,87.91
2023-04-21T03:27:17.295Z,87.03
2023-04-21T03:29:45.073Z,86.94
2023-04-21T03:32:13.008Z,87.25
2023-04-21T03:34:41.068Z,87.45
2023-04-21T03:37:08.812Z,87.52
2023-04-21T03:39:36.594Z,87.58
2023-04-21T03:42:05.888Z,87.93
2023-04-21T03:44:33.773Z,87.50
2023-04-21T03:47:03.373Z,87.77
2023-04-21T03:49:31.722Z,87.03
2023-04-21T03:51:59.472Z,87.67
2023-04-21T03:54:27.302Z,87.66
2023-04-21T03:56:55.517Z,88.11
2023-04-21T03:59:24.682Z,87.13
2023-04-21T04:01:52.578Z,87.19
2023-04-21T04:04:20.675Z,87.61
2023-04-21T04:06:48.626Z,87.89
2023-04-21T04:09:16.450Z,87.72
2023-04-21T04:11:44.230Z,87.87
2023-04-21T04:14:12.000Z,87.45
2023-04-21T04:16:41.504Z,87.58
2023-04-21T04:19:09.716Z,87.35
2023-04-21T04:21:37.521Z,87.20
2023-04-21T04:24:06.344Z,87.33
2023-04-21T04:26:35.536Z,87.72
2023-04-21T04:29:04.066Z,87.71
2023-04-21T04:31:32.691Z,87.71
2023-04-21T04:34:02.009Z,88.57
2023-04-21T04:36:30.847Z,87.62
2023-04-21T04:38:59.614Z,87.90
2023-04-21T04:41:27.485Z,87.52
2023-04-21T04:43:58.347Z,87.76
2023-04-21T04:46:28.469Z,88.44
2023-04-21T04:48:56.617Z,87.76
2023-04-21T04:51:25.774Z,88.36
2023-04-21T04:53:53.563Z,88.03
2023-04-21T04:56:22.073Z,88.09
2023-04-21T04:58:49.892Z,87.84
2023-04-21T05:01:18.393Z,87.91
2023-04-21T05:03:47.530Z,88.05
2023-04-21T05:06:15.418Z,88.07
2023-04-21T05:08:44.570Z,88.29
2023-04-21T05:11:12.516Z,87.74
2023-04-21T05:13:40.670Z,87.86
2023-04-21T05:16:10.211Z,88.15
2023-04-21T05:18:38.133Z,88.30
2023-04-21T05:21:06.031Z,87.69
2023-04-21T05:23:34.103Z,88.02
2023-04-21T05:26:04.684Z,88.00
2023-04-21T05:28:32.907Z,87.85
2023-04-21T05:31:00.723Z,87.70
2023-04-21T05:33:31.690Z,88.53
2023-04-21T05:35:59.555Z,87.82
2023-04-21T05:38:27.554Z,87.69
2023-04-21T05:40:56.078Z,87.66
2023-04-21T05:43:25.214Z,87.85
2023-04-21T05:45:53.228Z,88.42
2023-04-21T05:48:21.098Z,87.52
2023-04-21T05:50:48.939Z,87.91
2023-04-21T05:53:16.863Z,88.34
2023-04-21T05:55:44.649Z,87.48
2023-04-21T05:58:12.378Z,87.79
2023-04-21T06:00:41.531Z,87.65
2023-04-21T06:03:09.403Z,88.02
2023-04-21T06:05:37.484Z,87.45
2023-04-21T06:08:05.617Z,87.86
2023-04-21T06:10:33.488Z,87.86
2023-04-21T06:13:01.285Z,87.62
2023-04-21T06:15:29.103Z,87.51
2023-04-21T06:17:58.516Z,87.87
2023-04-21T06:20:27.167Z,87.20
2023-04-21T06:22:54.981Z,87.46
2023-04-21T06:25:23.148Z,86.96
2023-04-21T06:27:51.015Z,87.26
2023-04-21T06:30:18.849Z,86.90
2023-04-21T06:32:48.505Z,86.85
2023-04-21T06:35:18.889Z,86.94
2023-04-21T06:37:46.843Z,86.61
2023-04-21T06:40:16.191Z,86.54
2023-04-21T06:42:44.087Z,86.44
2023-04-21T06:45:12.564Z,86.40
2023-04-21T06:47:40.372Z,86.75
2023-04-21T06:50:09.304Z,86.70
2023-04-21T06:52:38.464Z,86.34
2023-04-21T06:55:07.588Z,86.16
2023-04-21T06:57:38.626Z,86.09
2023-04-21T07:00:07.679Z,86.21
2023-04-21T07:02:35.657Z,86.12
2023-04-21T07:05:03.555Z,85.85
2023-04-21T07:07:31.335Z,86.11
2023-04-21T07:10:00.593Z,86.24
2023-04-21T07:12:28.468Z,85.85
2023-04-21T07:14:56.379Z,86.00
2023-04-21T07:17:24.244Z,85.74
2023-04-21T07:19:52.070Z,85.63
2023-04-21T07:22:19.903Z,85.40
2023-04-21T07:24:49.328Z,85.42
2023-04-21T07:27:19.623Z,85.43
2023-04-21T07:29:47.387Z,85.17
2023-04-21T07:32:15.193Z,85.15
2023-04-21T07:34:43.722Z,84.99
2023-04-21T07:37:11.506Z,84.60
2023-04-21T07:39:39.295Z,84.58
2023-04-21T07:42:08.266Z,84.72
2023-04-21T07:44:37.802Z,83.87
2023-04-21T07:47:05.855Z,84.15
2023-04-21T07:49:33.707Z,84.34
2023-04-21T07:52:01.614Z,84.26
2023-04-21T07:54:31.599Z,84.46
2023-04-21T07:56:59.887Z,84.07
2023-04-21T07:59:27.617Z,84.03
2023-04-21T08:01:56.807Z,84.12
2023-04-21T08:04:25.041Z,83.66
2023-04-21T08:06:53.227Z,83.91
2023-04-21T08:09:21.354Z,83.66
2023-04-21T08:11:49.341Z,82.98
2023-04-21T08:14:17.451Z,82.96
2023-04-21T08:16:45.756Z,82.82
2023-04-21T08:19:15.060Z,83.00
2023-04-21T08:21:43.048Z,83.48
2023-04-21T08:24:10.882Z,82.34
2023-04-21T08:26:38.776Z,81.96
2023-04-21T08:29:07.519Z,81.71
2023-04-21T08:31:35.528Z,82.03
2023-04-21T08:34:03.410Z,82.03
2023-04-21T08:36:32.839Z,81.58
2023-04-21T08:39:01.016Z,80.96
2023-04-21T08:41:29.382Z,79.79
2023-04-21T08:43:57.132Z,79.12
2023-04-21T08:46:26.417Z,77.64
2023-04-21T08:48:59.563Z,76.33
2023-04-21T08:51:30.279Z,75.71
2023-04-21T08:53:59.549Z,73.80
2023-04-21T08:56:27.552Z,74.12
2023-04-21T08:58:55.450Z,74.33
2023-04-21T09:01:23.319Z,71.42
2023-04-21T09:03:51.252Z,72.77
2023-04-21T09:06:19.722Z,71.53
2023-04-21T09:08:55.850Z,69.52
2023-04-21T09:11:25.732Z,69.57
2023-04-21T09:13:58.147Z,69.47
2023-04-21T09:16:26.483Z,68.22
2023-04-21T09:18:54.297Z,67.33
2023-04-21T09:21:23.308Z,66.54
2023-04-21T09:23:52.063Z,65.03
2023-04-21T09:26:22.837Z,63.41
2023-04-21T09:28:53.867Z,63.59
2023-04-21T09:31:24.758Z,63.89
2023-04-21T09:33:58.842Z,64.55
2023-04-21T09:36:30.988Z,65.26
2023-04-21T09:41:32.297Z,66.26
2023-04-21T09:44:04.085Z,66.30
2023-04-21T09:46:35.315Z,64.97
2023-04-21T09:49:03.534Z,65.47
2023-04-21T09:52:05.294Z,63.87
2023-04-21T09:56:56.030Z,63.04
2023-04-21T09:59:27.734Z,63.57
2023-04-21T10:01:57.009Z,63.95
2023-04-21T10:04:26.724Z,64.11
2023-04-21T10:06:55.877Z,62.77
2023-04-21T10:09:25.446Z,62.60
2023-04-21T10:11:53.628Z,61.89
2023-04-21T10:14:21.908Z,62.19
2023-04-21T10:16:58.931Z,58.12
2023-04-21T10:19:27.947Z,59.50
2023-04-21T10:21:57.194Z,61.35
2023-04-21T10:24:25.097Z,60.73
2023-04-21T10:26:55.104Z,61.17
2023-04-21T10:29:40.178Z,60.39
2023-04-21T10:32:13.402Z,58.42
2023-04-21T10:34:41.506Z,57.02
2023-04-21T10:37:19.805Z,56.90
2023-04-21T10:39:57.392Z,56.14
2023-04-21T10:42:36.912Z,56.05
2023-04-21T10:45:10.331Z,55.36
2023-04-21T10:47:42.861Z,56.35
2023-04-21T10:50:25.522Z,57.88
2023-04-21T10:52:56.329Z,57.60
2023-04-21T10:55:27.419Z,56.71
2023-04-21T10:57:55.254Z,56.27
2023-04-21T11:00:24.484Z,57.47
2023-04-21T11:02:58.137Z,55.48
2023-04-21T11:05:29.554Z,53.86
2023-04-21T11:08:05.190Z,56.00
2023-04-21T11:10:43.428Z,56.25
2023-04-21T11:13:11.495Z,55.37
2023-04-21T11:15:39.444Z,54.04
2023-04-21T11:18:08.841Z,54.36
2023-04-21T11:20:41.515Z,54.74
2023-04-21T11:23:09.368Z,55.78
2023-04-21T11:25:37.188Z,55.19
2023-04-21T11:28:06.345Z,53.22
2023-04-21T11:30:34.799Z,51.31
2023-04-21T11:33:03.146Z,50.67
2023-04-21T11:35:32.598Z,51.82
2023-04-21T11:38:00.407Z,52.36
2023-04-21T11:40:28.184Z,52.53
2023-04-21T11:42:56.017Z,52.86
2023-04-21T11:45:23.918Z,51.80
2023-04-21T11:47:51.719Z,51.59
2023-04-21T11:50:33.269Z,53.15
2023-04-21T11:53:03.526Z,55.08
2023-04-21T11:55:31.327Z,54.07
2023-04-21T11:57:59.172Z,53.52
2023-04-21T12:00:31.172Z,53.19
2023-04-21T12:03:00.452Z,51.16
2023-04-21T12:05:37.591Z,51.40
2023-04-21T12:08:06.394Z,51.95
2023-04-21T12:10:34.300Z,52.76
2023-04-21T12:13:02.112Z,53.84
2023-04-21T12:15:31.492Z,52.97
2023-04-21T12:17:59.384Z,51.67
2023-04-21T12:20:30.605Z,48.45
2023-04-21T12:23:01.184Z,48.31
2023-04-21T12:25:28.998Z,50.30
2023-04-21T12:27:59.886Z,52.21
2023-04-21T12:30:27.690Z,50.77
2023-04-21T12:32:56.050Z,50.59
2023-04-21T12:35:24.026Z,51.05
2023-04-21T12:37:51.789Z,50.88
2023-04-21T12:40:21.064Z,50.81
2023-04-21T12:42:49.426Z,52.14
2023-04-21T12:45:17.248Z,52.26
2023-04-21T12:47:46.873Z,54.09
2023-04-21T12:50:14.958Z,54.78
2023-04-21T12:52:42.768Z,53.60
2023-04-21T12:55:10.949Z,53.71
2023-04-21T12:57:40.167Z,53.88
2023-04-21T13:00:12.245Z,52.28
2023-04-21T13:02:40.300Z,50.65
2023-04-21T13:05:10.052Z,50.96
2023-04-21T13:07:37.877Z,51.56
2023-04-21T13:10:06.983Z,52.18
2023-04-21T13:12:34.945Z,53.23
2023-04-21T13:15:04.442Z,50.58
2023-04-21T13:17:32.713Z,49.13
2023-04-21T13:20:00.666Z,48.79
2023-04-21T13:22:28.532Z,48.41
2023-04-21T13:24:56.274Z,50.47
2023-04-21T13:27:24.120Z,54.15
2023-04-21T13:29:52.391Z,52.91
2023-04-21T13:32:21.698Z,53.80
2023-04-21T13:34:49.710Z,51.66
2023-04-21T13:37:17.484Z,51.22
2023-04-21T13:39:45.301Z,50.02
2023-04-21T13:42:13.191Z,48.88
2023-04-21T13:44:41.049Z,50.52
2023-04-21T13:47:09.274Z,50.63
2023-04-21T13:49:39.564Z,49.60
2023-04-21T13:52:07.353Z,51.60
2023-04-21T13:54:35.175Z,51.19
2023-04-21T13:57:03.066Z,51.87
2023-04-21T13:59:31.067Z,53.68
2023-04-21T14:01:59.001Z,50.81
2023-04-21T14:04:27.117Z,51.33
2023-04-21T14:06:56.809Z,51.78
2023-04-21T14:09:24.655Z,51.80
2023-04-21T14:11:52.496Z,50.01
2023-04-21T14:14:31.313Z,51.39
2023-04-21T14:17:06.204Z,51.66
2023-04-21T14:19:34.217Z,52.43
2023-04-21T14:22:03.939Z,52.15
2023-04-21T14:24:32.510Z,51.12
2023-04-21T14:27:00.387Z,52.46
2023-04-21T14:29:28.347Z,53.25
2023-04-21T14:31:57.910Z,52.46
2023-04-21T14:34:26.342Z,50.16
2023-04-21T14:36:54.514Z,49.40
2023-04-21T14:39:23.840Z,47.99
2023-04-21T14:41:51.574Z,50.37
2023-04-21T14:44:19.929Z,50.88
2023-04-21T14:46:56.887Z,50.33
2023-04-21T14:49:29.307Z,50.62
2023-04-21T14:51:57.083Z,49.76
2023-04-21T14:54:26.351Z,49.52
2023-04-21T14:57:03.395Z,49.99
2023-04-21T14:59:39.330Z,49.53
2023-04-21T15:02:07.262Z,49.54
2023-04-21T15:04:35.206Z,47.61
2023-04-21T15:07:03.780Z,47.91
2023-04-21T15:09:33.376Z,47.64
2023-04-21T15:12:01.425Z,47.93
2023-04-21T15:14:29.270Z,46.85
2023-04-21T15:16:57.083Z,47.41
2023-04-21T15:19:31.866Z,46.17
2023-04-21T15:21:59.807Z,46.56
2023-04-21T15:24:27.656Z,45.90
2023-04-21T15:26:57.214Z,46.89
2023-04-21T15:29:25.061Z,48.05
2023-04-21T15:31:52.937Z,48.42
2023-04-21T15:34:20.762Z,48.70
2023-04-21T15:36:48.688Z,48.65
2023-04-21T15:39:16.488Z,49.82
2023-04-21T15:41:44.314Z,49.62
2023-04-21T15:44:13.677Z,50.40
2023-04-21T15:46:41.636Z,48.62
2023-04-21T15:49:09.529Z,49.84
2023-04-21T15:51:37.429Z,49.47
2023-04-21T15:54:05.363Z,49.10
2023-04-21T15:56:33.212Z,47.53
2023-04-21T15:59:01.067Z,48.20
2023-04-21T16:01:30.302Z,46.47
2023-04-21T16:03:58.309Z,46.60
2023-04-21T16:06:26.597Z,44.93
2023-04-21T16:08:54.554Z,45.77
2023-04-21T16:11:24.883Z,45.56
2023-04-21T16:13:53.023Z,46.09
2023-04-21T16:16:20.955Z,45.52
2023-04-21T16:18:50.175Z,45.56
2023-04-21T16:21:18.047Z,45.94
2023-04-21T16:23:45.999Z,46.08
2023-04-21T16:26:13.767Z,45.24
2023-04-21T16:28:41.771Z,47.68
2023-04-21T16:31:09.698Z,49.51
2023-04-21T16:33:37.512Z,50.83
2023-04-21T16:36:07.169Z,51.03
2023-04-21T16:38:35.028Z,51.23
2023-04-21T16:41:02.911Z,51.44
2023-04-21T16:43:30.764Z,52.61
2023-04-21T16:45:58.850Z,52.04
2023-04-21T16:48:27.014Z,51.82
2023-04-21T16:50:54.929Z,51.96
2023-04-21T16:53:25.516Z,51.73
2023-04-21T16:55:53.981Z,51.21
2023-04-21T16:58:22.191Z,50.80
2023-04-21T17:00:50.084Z,51.04
2023-04-21T17:03:18.196Z,51.56
2023-04-21T17:05:46.182Z,51.17
2023-04-21T17:08:13.915Z,50.70
2023-04-21T17:10:43.093Z,50.75
2023-04-21T17:13:10.885Z,50.68
2023-04-21T17:15:38.718Z,50.83
2023-04-21T17:18:06.788Z,50.85
2023-04-21T17:20:35.151Z,51.33
2023-04-21T17:23:02.924Z,51.94
2023-04-21T17:25:30.875Z,52.12
2023-04-21T17:28:01.120Z,52.24
2023-04-21T17:30:28.956Z,52.44
2023-04-21T17:33:08.249Z,52.60
2023-04-21T17:35:55.800Z,52.08
2023-04-21T17:38:29.837Z,52.79
2023-04-21T17:40:57.687Z,53.17
2023-04-21T17:43:26.836Z,53.16
2023-04-21T17:45:54.780Z,51.94
2023-04-21T17:48:22.536Z,53.30
2023-04-21T17:50:50.536Z,57.51
2023-04-21T17:53:18.940Z,60.53
2023-04-21T17:55:46.756Z,62.43
2023-04-21T17:58:14.705Z,65.57
2023-04-21T18:00:44.050Z,68.19
2023-04-21T18:03:11.982Z,68.75
2023-04-21T18:05:40.784Z,68.83
2023-04-21T18:08:08.740Z,69.08
2023-04-21T18:10:37.558Z,69.40
2023-04-21T18:13:06.145Z,70.00
2023-04-21T18:15:34.053Z,69.97
2023-04-21T18:18:03.237Z,70.48
2023-04-21T18:20:31.303Z,70.35
2023-04-21T18:22:59.087Z,70.32
2023-04-21T18:25:40.826Z,70.16
2023-04-21T18:28:11.134Z,69.93
2023-04-21T18:30:39.238Z,65.99
2023-04-21T18:33:08.525Z,63.99
2023-04-21T18:35:36.728Z,66.51
2023-04-21T18:38:05.879Z,67.22
2023-04-21T18:40:33.818Z,67.55
2023-04-21T18:43:01.609Z,67.71
2023-04-21T18:45:29.410Z,64.04
2023-04-21T18:47:57.200Z,64.69
2023-04-21T18:50:27.494Z,64.52
2023-04-21T18:52:55.802Z,64.85
2023-04-21T18:55:23.609Z,65.37
2023-04-21T18:57:51.360Z,65.46
2023-04-21T19:00:19.177Z,65.85
2023-04-21T19:02:48.842Z,66.04
2023-04-21T19:05:17.024Z,66.42
2023-04-21T19:07:46.188Z,66.51
2023-04-21T19:10:13.993Z,66.65
2023-04-21T19:12:41.781Z,66.22
2023-04-21T19:15:10.576Z,65.88
2023-04-21T19:17:39.650Z,65.73
2023-04-21T19:20:08.680Z,65.59
2023-04-21T19:22:36.992Z,65.26
2023-04-21T19:25:08.082Z,65.33
2023-04-21T19:27:35.917Z,65.57
2023-04-21T19:30:03.780Z,65.67
2023-04-21T19:32:31.746Z,65.84
2023-04-21T19:34:59.759Z,65.77
2023-04-21T19:37:28.088Z,65.73
2023-04-21T19:39:56.036Z,65.84
2023-04-21T19:42:25.158Z,65.91
2023-04-21T19:44:53.226Z,66.10
2023-04-21T19:47:21.204Z,66.14
2023-04-21T19:49:49.068Z,65.66
2023-04-21T19:52:16.848Z,63.84
2023-04-21T19:54:44.657Z,61.10
2023-04-21T19:57:12.556Z,60.56
2023-04-21T19:59:41.768Z,60.85
2023-04-21T20:02:09.660Z,61.19
2023-04-21T20:04:37.710Z,61.35
2023-04-21T20:07:05.777Z,61.40
2023-04-21T20:09:33.578Z,61.62
2023-04-21T20:12:01.596Z,61.37
2023-04-21T20:14:29.350Z,61.36
2023-04-21T20:16:58.729Z,61.35
2023-04-21T20:19:27.153Z,61.61
2023-04-21T20:21:55.062Z,61.63
2023-04-21T20:24:23.119Z,61.25
2023-04-21T20:26:51.214Z,61.19
2023-04-21T20:29:19.082Z,61.11
2023-04-21T20:31:47.329Z,59.26
2023-04-21T20:34:16.836Z,58.31
2023-04-21T20:36:45.011Z,57.49
2023-04-21T20:39:14.430Z,56.75
2023-04-21T20:41:43.688Z,56.34
2023-04-21T20:44:12.757Z,56.37
2023-04-21T20:46:40.962Z,56.07
2023-04-21T20:49:08.953Z,56.38
2023-04-21T20:51:41.766Z,56.63
2023-04-21T20:54:09.868Z,57.88
2023-04-21T20:56:37.677Z,57.86
2023-04-21T20:59:05.866Z,58.02
2023-04-21T21:01:38.810Z,58.49
2023-04-21T21:04:07.923Z,58.86
2023-04-21T21:06:35.916Z,59.16
2023-04-21T21:09:06.105Z,60.13
2023-04-21T21:11:34.043Z,60.25
2023-04-21T21:14:02.296Z,59.98
2023-04-21T21:16:30.469Z,60.12
2023-04-21T21:18:58.250Z,60.73
2023-04-21T21:21:26.449Z,60.79
2023-04-21T21:23:54.372Z,61.29
2023-04-21T21:26:23.645Z,61.55
2023-04-21T21:28:51.433Z,61.76
2023-04-21T21:31:19.448Z,62.18
2023-04-21T21:33:47.217Z,62.29
2023-04-21T21:36:15.362Z,62.58
2023-04-21T21:38:43.274Z,62.66
2023-04-21T21:41:12.501Z,63.07
2023-04-21T21:43:41.653Z,63.62
2023-04-21T21:46:10.008Z,63.64
2023-04-21T21:48:38.039Z,63.38
2023-04-21T21:51:06.191Z,63.99
2023-04-21T21:53:34.076Z,63.81
2023-04-21T21:56:02.241Z,64.20
2023-04-21T21:58:30.403Z,64.11
2023-04-21T22:00:59.704Z,64.32
2023-04-21T22:03:28.228Z,64.81
2023-04-21T22:05:56.216Z,64.93
2023-04-21T22:08:23.992Z,64.68
2023-04-21T22:10:52.113Z,64.99
2023-04-21T22:13:20.197Z,65.20
2023-04-21T22:15:48.236Z,65.35
2023-04-21T22:18:18.685Z,64.97
2023-04-21T22:20:46.614Z,65.51
2023-04-21T22:23:14.394Z,65.38
2023-04-21T22:25:42.396Z,65.86
2023-04-21T22:28:10.568Z,65.89
2023-04-21T22:30:38.973Z,66.13
2023-04-21T22:33:07.223Z,66.17
2023-04-21T22:35:36.801Z,66.45
2023-04-21T22:38:04.657Z,65.94
2023-04-21T22:40:32.711Z,66.60
2023-04-21T22:43:00.601Z,66.47
2023-04-21T22:45:28.529Z,66.88
2023-04-21T22:47:56.873Z,67.29
2023-04-21T22:50:25.691Z,67.09
2023-04-21T22:52:54.837Z,67.07
2023-04-21T22:55:23.096Z,67.11
2023-04-21T22:57:51.089Z,66.96
2023-04-21T23:00:18.988Z,67.17
2023-04-21T23:02:46.841Z,67.36
2023-04-21T23:05:14.634Z,67.28
2023-04-21T23:07:42.423Z,67.14
2023-04-21T23:10:12.350Z,67.15
2023-04-21T23:12:40.239Z,67.46
2023-04-21T23:15:08.804Z,67.30
2023-04-21T23:17:36.578Z,67.21
2023-04-21T23:20:05.714Z,67.45
2023-04-21T23:22:33.571Z,67.50
2023-04-21T23:25:01.353Z,67.63
2023-04-21T23:27:30.598Z,67.60
2023-04-21T23:29:58.362Z,67.58
2023-04-21T23:32:26.316Z,68.26
2023-04-21T23:34:54.446Z,67.80
2023-04-21T23:37:22.231Z,68.20
2023-04-21T23:39:50.329Z,68.54
2023-04-21T23:42:18.109Z,68.46
2023-04-21T23:44:47.533Z,68.50
2023-04-21T23:47:15.335Z,68.11
2023-04-21T23:49:43.101Z,68.61
2023-04-21T23:52:10.922Z,68.55
2023-04-21T23:54:38.655Z,69.22
2023-04-21T23:57:06.483Z,69.08
2023-04-21T23:59:34.231Z,69.84
